Time;durP1;ratioP1;P1;durP2;ratioP2;P2;SDS_P1;SDS_P2;PMS_P1;PMS_P2;Temp;Humidity;BMP_temperature;BMP_pressure;BME280_temperature;BME280_humidity;BME280_pressure;Samples;Min_cycle;Max_cycle;Signal;HPM_P1;HPM_P2
2023/08/31 00:01:30;;;;;;;;;2.00;2.00;;;;;14.47;75.53;100722.09;5029080;28;9254;-67
2023/08/31 00:03:57;;;;;;;;;3.00;3.00;;;;;14.49;75.90;100725.41;5032774;28;9256;-67
2023/08/31 00:06:24;;;;;;;;;3.33;2.00;;;;;14.53;76.13;100733.91;5011694;28;9260;-68
2023/08/31 00:08:50;;;;;;;;;0.00;0.00;;;;;14.53;76.21;100734.75;5028978;28;9164;-67
2023/08/31 00:11:17;;;;;;;;;0.33;0.33;;;;;14.53;76.50;100736.63;5023885;28;9059;-66
2023/08/31 00:13:43;;;;;;;;;0.00;0.00;;;;;14.57;76.90;100741.38;5023347;28;9146;-67
2023/08/31 00:16:11;;;;;;;;;0.33;0.33;;;;;14.52;76.69;100721.44;5026356;28;9078;-67
2023/08/31 00:18:38;;;;;;;;;2.00;2.00;;;;;14.56;76.93;100719.94;5028176;28;9914;-67
2023/08/31 00:21:05;;;;;;;;;1.00;1.00;;;;;14.55;76.88;100719.13;5026612;28;9261;-67
2023/08/31 00:23:33;;;;;;;;;1.00;1.00;;;;;14.53;77.39;100723.91;5030593;28;9238;-66
2023/08/31 00:26:00;;;;;;;;;2.00;2.00;;;;;14.52;77.25;100719.56;5025031;28;10042;-67
2023/08/31 00:28:27;;;;;;;;;1.33;1.33;;;;;14.51;77.56;100715.19;5020535;28;9267;-67
2023/08/31 00:30:54;;;;;;;;;3.00;3.00;;;;;14.49;78.18;100716.47;5025654;28;9105;-67
2023/08/31 00:33:20;;;;;;;;;1.00;1.00;;;;;14.48;78.40;100714.78;5017130;28;9372;-66
2023/08/31 00:35:47;;;;;;;;;3.00;3.00;;;;;14.48;78.20;100701.25;5029218;28;9193;-67
2023/08/31 00:38:14;;;;;;;;;3.00;2.00;;;;;14.45;78.40;100701.69;5028456;28;9221;-66
2023/08/31 00:40:44;;;;;;;;;1.67;1.67;;;;;14.45;78.70;100726.06;5022716;28;9265;-67
2023/08/31 00:43:15;;;;;;;;;1.67;1.67;;;;;14.34;78.56;100735.72;5016907;28;9091;-68
2023/08/31 00:45:42;;;;;;;;;2.00;2.00;;;;;14.30;79.30;100746.19;5027892;28;9189;-67
2023/08/31 00:48:08;;;;;;;;;3.67;1.67;;;;;14.26;79.25;100750.38;5029593;28;9255;-66
2023/08/31 00:50:35;;;;;;;;;2.00;2.00;;;;;14.21;79.44;100744.78;5028873;28;9967;-67
2023/08/31 00:53:03;;;;;;;;;3.67;3.00;;;;;14.22;79.81;100746.47;5027507;28;9282;-66
2023/08/31 00:55:32;;;;;;;;;3.67;3.00;;;;;14.25;80.34;100718.09;5031447;28;9276;-66
2023/08/31 00:58:00;;;;;;;;;3.00;3.00;;;;;14.18;80.17;100712.75;5027404;28;9332;-67
2023/08/31 01:00:46;;;;;;;;;2.00;2.00;;;;;14.17;80.62;100705.66;5023455;28;9424;-66
2023/08/31 01:03:25;;;;;;;;;2.00;2.00;;;;;14.20;81.18;100716.06;5026835;28;9268;-67
2023/08/31 01:06:02;;;;;;;;;1.00;1.00;;;;;14.22;81.18;100719.38;5028283;28;9263;-67
2023/08/31 01:08:40;;;;;;;;;1.00;1.00;;;;;14.22;80.97;100705.00;5025999;28;9174;-67
2023/08/31 01:11:34;;;;;;;;;0.00;0.00;;;;;14.21;80.89;100701.47;5026484;28;9078;-67
2023/08/31 01:14:16;;;;;;;;;1.00;1.00;;;;;14.23;81.08;100709.38;5036976;28;9060;-68
2023/08/31 01:16:45;;;;;;;;;0.67;0.67;;;;;14.20;81.15;100690.88;5028088;28;9145;-67
2023/08/31 01:19:43;;;;;;;;;2.00;0.67;;;;;14.20;81.29;100691.69;5024828;28;9397;-67
2023/08/31 01:22:16;;;;;;;;;0.33;0.33;;;;;14.17;81.16;100683.19;5025384;28;9331;-67
2023/08/31 01:24:45;;;;;;;;;0.00;0.00;;;;;14.17;81.32;100697.53;5027048;28;9154;-67
2023/08/31 01:27:12;;;;;;;;;0.33;0.33;;;;;14.18;81.37;100691.09;5033880;28;9416;-68
2023/08/31 01:29:38;;;;;;;;;0.00;0.00;;;;;14.20;81.63;100699.81;5026526;28;9175;-67
2023/08/31 01:32:07;;;;;;;;;1.00;1.00;;;;;14.21;81.40;100695.22;5023305;28;9162;-67
2023/08/31 01:34:35;;;;;;;;;2.00;1.00;;;;;14.22;81.21;100696.88;5028613;28;9144;-67
2023/08/31 01:37:12;;;;;;;;;1.00;1.00;;;;;14.22;81.21;100692.31;5026094;28;9255;-67
2023/08/31 01:40:06;;;;;;;;;0.00;0.00;;;;;14.20;81.35;100693.56;5025662;28;9288;-68
2023/08/31 01:42:33;;;;;;;;;0.00;0.00;;;;;14.19;81.36;100691.94;5027538;28;9171;-66
2023/08/31 01:45:01;;;;;;;;;2.00;1.00;;;;;14.18;81.53;100690.25;5025698;28;9253;-67
2023/08/31 01:47:28;;;;;;;;;0.67;0.00;;;;;14.17;81.63;100684.00;5038556;28;9227;-67
2023/08/31 01:49:54;;;;;;;;;1.33;0.33;;;;;14.16;81.97;100687.78;5028213;28;9390;-67
2023/08/31 01:52:23;;;;;;;;;0.00;0.00;;;;;14.18;81.82;100695.66;5008416;28;9400;-68
2023/08/31 01:54:49;;;;;;;;;0.00;0.00;;;;;14.17;81.90;100697.53;5026895;28;9248;-67
2023/08/31 01:57:16;;;;;;;;;0.00;0.00;;;;;14.15;81.77;100704.25;5019985;28;9319;-67
2023/08/31 01:59:59;;;;;;;;;0.00;0.00;;;;;14.12;81.74;100710.94;5027399;28;9372;-67
2023/08/31 02:02:26;;;;;;;;;0.00;0.00;;;;;14.10;81.83;100711.16;5020840;28;9325;-66
2023/08/31 02:04:52;;;;;;;;;0.00;0.00;;;;;14.13;81.98;100712.56;5024480;28;9332;-67
2023/08/31 02:07:19;;;;;;;;;1.00;1.00;;;;;14.12;82.23;100712.81;5016971;28;9318;-68
2023/08/31 02:09:45;;;;;;;;;1.67;1.67;;;;;14.13;82.05;100711.75;5020089;28;9315;-67
2023/08/31 02:12:12;;;;;;;;;1.50;1.50;;;;;14.10;81.97;100718.44;5024839;28;9406;-67
2023/08/31 02:14:38;;;;;;;;;2.00;2.00;;;;;14.08;82.11;100709.72;5028420;28;9458;-67
2023/08/31 02:17:05;;;;;;;;;1.75;1.00;;;;;14.07;81.95;100718.88;5028071;28;9389;-66
2023/08/31 02:19:31;;;;;;;;;1.00;1.00;;;;;14.05;82.36;100713.66;5025150;28;9425;-67
2023/08/31 02:21:58;;;;;;;;;1.33;1.33;;;;;14.06;82.22;100709.13;5025739;28;9342;-67
2023/08/31 02:24:24;;;;;;;;;1.00;1.00;;;;;14.08;82.37;100701.59;5022290;28;9361;-67
2023/08/31 02:26:51;;;;;;;;;0.00;0.00;;;;;14.07;82.10;100706.19;5010320;28;9396;-67
2023/08/31 02:29:18;;;;;;;;;1.00;1.00;;;;;14.09;82.07;100708.66;5028519;28;9230;-67
2023/08/31 02:31:45;;;;;;;;;1.50;1.50;;;;;14.08;82.01;100704.28;5027407;28;9564;-66
2023/08/31 02:34:11;;;;;;;;;0.00;0.00;;;;;14.06;82.28;100703.69;5025391;28;9379;-66
2023/08/31 02:36:38;;;;;;;;;1.00;0.67;;;;;14.06;82.45;100695.59;5023264;28;9183;-67
2023/08/31 02:39:04;;;;;;;;;0.00;0.00;;;;;14.06;82.05;100701.00;5025352;28;9287;-67
2023/08/31 02:41:31;;;;;;;;;0.67;0.67;;;;;14.06;82.37;100704.53;5023445;28;9361;-66
2023/08/31 02:43:58;;;;;;;;;0.00;0.00;;;;;14.06;82.46;100712.66;5029663;28;9374;-66
2023/08/31 02:46:24;;;;;;;;;0.00;0.00;;;;;14.05;82.38;100710.13;5027118;28;9360;-67
2023/08/31 02:48:51;;;;;;;;;1.50;1.50;;;;;14.03;82.31;100725.78;5023685;28;9326;-68
2023/08/31 02:51:18;;;;;;;;;2.25;2.25;;;;;14.00;82.41;100726.22;5009601;28;9460;-66
2023/08/31 02:53:44;;;;;;;;;0.67;0.67;;;;;13.99;82.62;100730.81;5043989;28;9461;-68
2023/08/31 02:56:11;;;;;;;;;0.00;0.00;;;;;13.96;82.44;100725.81;5027228;28;9314;-67
2023/08/31 02:58:38;;;;;;;;;0.00;0.00;;;;;13.93;82.86;100711.91;5027835;28;9346;-67
2023/08/31 03:01:11;;;;;;;;;0.67;0.67;;;;;13.92;82.95;100723.78;5023599;28;9383;-67
2023/08/31 03:03:42;;;;;;;;;0.33;0.00;;;;;13.96;83.08;100711.47;5025108;28;9315;-67
2023/08/31 03:06:10;;;;;;;;;0.00;0.00;;;;;13.99;83.50;100724.56;5031638;28;9366;-67
2023/08/31 03:08:37;;;;;;;;;0.00;0.00;;;;;14.01;83.42;100717.03;5027349;28;9398;-66
2023/08/31 03:11:05;;;;;;;;;0.00;0.00;;;;;14.01;83.38;100715.16;5030953;28;9247;-67
2023/08/31 03:13:32;;;;;;;;;0.00;0.00;;;;;14.02;83.09;100718.72;5030027;28;9166;-67
2023/08/31 03:15:59;;;;;;;;;0.00;0.00;;;;;14.01;82.92;100715.16;5031647;28;9325;-66
2023/08/31 03:18:26;;;;;;;;;1.00;1.00;;;;;14.02;83.12;100713.31;5030123;28;9229;-66
2023/08/31 03:20:54;;;;;;;;;0.00;0.00;;;;;14.00;82.85;100716.22;5013410;28;9172;-67
2023/08/31 03:23:21;;;;;;;;;1.00;1.00;;;;;13.98;82.96;100715.63;5023353;28;9194;-67
2023/08/31 03:25:47;;;;;;;;;0.00;0.00;;;;;13.98;82.75;100712.09;5025977;28;9217;-67
2023/08/31 03:28:14;;;;;;;;;1.00;1.00;;;;;13.96;83.24;100715.00;5023317;28;9305;-67
2023/08/31 03:30:40;;;;;;;;;1.00;1.00;;;;;13.96;83.17;100714.19;5025046;28;9249;-67
2023/08/31 03:33:07;;;;;;;;;0.00;0.00;;;;;13.94;83.02;100719.00;5027354;28;9229;-67
2023/08/31 03:35:34;;;;;;;;;0.33;0.33;;;;;13.90;83.17;100720.47;5027796;28;9348;-68
2023/08/31 03:38:01;;;;;;;;;0.67;0.67;;;;;13.83;83.00;100721.34;5028570;28;9235;-67
2023/08/31 03:40:28;;;;;;;;;2.67;0.00;;;;;13.82;83.33;100718.88;5028531;28;9240;-67
2023/08/31 03:42:54;;;;;;;;;1.00;0.00;;;;;13.78;83.13;100721.16;5027844;28;9343;-67
2023/08/31 03:45:21;;;;;;;;;0.00;0.00;;;;;13.78;83.25;100720.34;5029539;28;9319;-67
2023/08/31 03:47:47;;;;;;;;;0.00;0.00;;;;;13.78;83.77;100713.06;5008511;28;9547;-67
2023/08/31 03:50:14;;;;;;;;;0.33;0.33;;;;;13.80;83.44;100716.34;5029729;28;9460;-67
2023/08/31 03:52:41;;;;;;;;;1.00;1.00;;;;;13.82;83.63;100719.69;5028138;28;9325;-67
2023/08/31 03:55:08;;;;;;;;;2.33;1.00;;;;;13.84;83.47;100717.56;5030542;28;10054;-68
2023/08/31 03:57:34;;;;;;;;;1.00;1.00;;;;;13.85;83.42;100724.66;5030319;28;9324;-67
2023/08/31 04:00:12;;;;;;;;;0.00;0.00;;;;;13.88;83.47;100725.25;5015724;28;9347;-67
2023/08/31 04:02:43;;;;;;;;;1.00;1.00;;;;;13.89;83.61;100737.75;5030305;28;9275;-67
2023/08/31 04:05:11;;;;;;;;;0.00;0.00;;;;;13.89;83.40;100743.97;5030432;28;9369;-67
2023/08/31 04:07:37;;;;;;;;;1.00;0.00;;;;;13.91;83.55;100743.78;5027513;28;9293;-67
2023/08/31 04:10:04;;;;;;;;;0.00;0.00;;;;;13.91;83.29;100751.91;5010320;28;9185;-66
2023/08/31 04:12:31;;;;;;;;;0.00;0.00;;;;;13.91;83.61;100744.59;5027568;28;9470;-67
2023/08/31 04:14:58;;;;;;;;;0.00;0.00;;;;;13.89;83.28;100746.69;5030010;28;9895;-67
2023/08/31 04:17:25;;;;;;;;;0.00;0.00;;;;;13.89;83.56;100743.97;5030186;28;9177;-67
2023/08/31 04:19:54;;;;;;;;;1.33;1.00;;;;;13.88;83.30;100736.91;5031830;28;9165;-66
2023/08/31 04:22:20;;;;;;;;;0.00;0.00;;;;;13.88;83.39;100727.97;5029406;28;9964;-66
2023/08/31 04:24:47;;;;;;;;;0.00;0.00;;;;;13.85;83.27;100727.38;5022334;28;9247;-67
2023/08/31 04:27:13;;;;;;;;;0.00;0.00;;;;;13.85;83.40;100734.63;5027067;28;9150;-68
2023/08/31 04:29:40;;;;;;;;;0.00;0.00;;;;;13.83;83.63;100742.16;5029854;28;9055;-67
2023/08/31 04:32:06;;;;;;;;;0.00;0.00;;;;;13.83;83.66;100742.16;5030329;28;9118;-67
2023/08/31 04:34:33;;;;;;;;;0.00;0.00;;;;;13.84;83.60;100749.22;5025731;28;9181;-67
2023/08/31 04:36:59;;;;;;;;;0.00;0.00;;;;;13.84;83.68;100744.63;5025997;28;9309;-67
2023/08/31 04:39:26;;;;;;;;;0.00;0.00;;;;;13.87;83.66;100756.91;5025327;28;9317;-67
2023/08/31 04:41:53;;;;;;;;;0.00;0.00;;;;;13.87;83.42;100756.91;5020155;28;9267;-67
2023/08/31 04:44:20;;;;;;;;;0.00;0.00;;;;;13.88;83.73;100765.84;5027434;28;9365;-66
2023/08/31 04:46:46;;;;;;;;;0.00;0.00;;;;;13.88;83.48;100769.38;5034181;23;9312;-69
2023/08/31 04:49:13;;;;;;;;;0.00;0.00;;;;;13.85;83.21;100769.81;5019476;28;9374;-69
2023/08/31 04:51:41;;;;;;;;;0.00;0.00;;;;;13.82;83.18;100773.81;5030250;28;9382;-69
2023/08/31 04:54:08;;;;;;;;;0.00;0.00;;;;;13.82;83.77;100781.09;5029158;28;9245;-68
2023/08/31 04:56:34;;;;;;;;;0.00;0.00;;;;;13.83;83.43;100786.28;5023213;28;9228;-69
2023/08/31 04:59:02;;;;;;;;;0.00;0.00;;;;;13.83;83.51;100774.63;5003763;28;9987;-68
2023/08/31 05:01:29;;;;;;;;;0.00;0.00;;;;;13.84;83.64;100782.50;5009286;28;10007;-69
2023/08/31 05:03:56;;;;;;;;;1.00;1.00;;;;;13.87;83.77;100780.44;5005292;28;9191;-68
2023/08/31 05:06:22;;;;;;;;;0.00;0.00;;;;;13.90;83.81;100790.84;5009078;28;9277;-69
2023/08/31 05:08:49;;;;;;;;;0.00;0.00;;;;;13.92;83.68;100799.56;5005180;28;9374;-69
2023/08/31 05:11:16;;;;;;;;;2.00;1.00;;;;;13.90;83.48;100798.94;5007043;28;9255;-68
2023/08/31 05:13:42;;;;;;;;;0.00;0.00;;;;;13.88;83.76;100804.56;4986999;28;9258;-68
2023/08/31 05:16:09;;;;;;;;;0.67;0.67;;;;;13.85;83.76;100796.88;5011574;28;9811;-69
2023/08/31 05:18:36;;;;;;;;;1.00;0.00;;;;;13.82;83.68;100806.28;5006304;28;9248;-69
2023/08/31 05:21:03;;;;;;;;;1.00;0.00;;;;;13.79;83.45;100801.28;5025807;28;9312;-68
2023/08/31 05:23:30;;;;;;;;;0.00;0.00;;;;;13.77;83.50;100818.78;5002722;28;9335;-68
2023/08/31 05:25:57;;;;;;;;;0.00;0.00;;;;;13.72;83.71;100805.88;5008368;28;9371;-68
2023/08/31 05:28:24;;;;;;;;;0.00;0.00;;;;;13.68;83.63;100809.25;5022639;28;9422;-69
2023/08/31 05:30:52;;;;;;;;;0.00;0.00;;;;;13.66;83.64;100812.19;5006391;28;9309;-69
2023/08/31 05:33:19;;;;;;;;;0.00;0.00;;;;;13.64;83.70;100811.53;5010456;28;9332;-68
2023/08/31 05:35:46;;;;;;;;;0.00;0.00;;;;;13.65;83.56;100804.25;5006462;28;9249;-67
2023/08/31 05:38:12;;;;;;;;;0.00;0.00;;;;;13.57;83.55;100811.59;5004312;28;9315;-69
2023/08/31 05:40:39;;;;;;;;;0.00;0.00;;;;;13.57;83.58;100818.84;5001020;28;9394;-68
2023/08/31 05:43:05;;;;;;;;;0.00;0.00;;;;;13.58;83.31;100815.94;5007396;28;9371;-68
2023/08/31 05:45:33;;;;;;;;;0.00;0.00;;;;;13.57;83.20;100818.84;5005129;28;9390;-69
2023/08/31 05:48:00;;;;;;;;;0.00;0.00;;;;;13.59;83.36;100814.91;5008302;28;9386;-68
2023/08/31 05:50:27;;;;;;;;;0.00;0.00;;;;;13.60;83.46;100818.44;5003692;28;9286;-69
2023/08/31 05:52:55;;;;;;;;;0.00;0.00;;;;;13.61;83.14;100817.38;5006002;28;9398;-69
2023/08/31 05:55:22;;;;;;;;;0.00;0.00;;;;;13.64;83.10;100813.44;5004609;28;9381;-68
2023/08/31 05:57:48;;;;;;;;;0.00;0.00;;;;;13.67;83.16;100818.41;5008446;28;9287;-69
2023/08/31 06:00:16;;;;;;;;;0.00;0.00;;;;;13.69;83.48;100816.31;5006614;28;9344;-69
2023/08/31 06:02:44;;;;;;;;;0.00;0.00;;;;;13.73;83.25;100825.66;5005939;28;9296;-70
2023/08/31 06:05:16;;;;;;;;;0.00;0.00;;;;;13.73;83.49;100828.34;5005062;28;9312;-70
2023/08/31 06:07:43;;;;;;;;;0.00;0.00;;;;;13.75;83.56;100831.69;4996581;28;9406;-69
2023/08/31 06:10:10;;;;;;;;;0.33;0.00;;;;;13.78;83.75;100832.09;5004676;28;9335;-69
2023/08/31 06:12:37;;;;;;;;;1.00;0.00;;;;;13.82;83.92;100835.22;5007369;28;9317;-69
2023/08/31 06:15:04;;;;;;;;;0.00;0.00;;;;;13.88;83.79;100833.50;5003012;28;9398;-70
2023/08/31 06:17:30;;;;;;;;;0.00;0.00;;;;;13.94;83.60;100838.06;5006272;28;9341;-70
2023/08/31 06:19:57;;;;;;;;;1.00;1.00;;;;;13.95;84.12;100835.13;4997355;28;9170;-69
2023/08/31 06:22:24;;;;;;;;;0.00;0.00;;;;;14.01;84.11;100838.84;5003654;28;9268;-69
2023/08/31 06:24:51;;;;;;;;;1.00;1.00;;;;;14.04;84.03;100843.81;5003162;28;9283;-69
2023/08/31 06:27:18;;;;;;;;;0.00;0.00;;;;;14.04;83.77;100847.34;5008815;28;9078;-69
2023/08/31 06:29:44;;;;;;;;;4.50;3.75;;;;;14.06;83.91;100844.44;5002040;28;9193;-69
2023/08/31 06:32:11;;;;;;;;;2.00;2.00;;;;;14.08;84.18;100842.34;5007992;28;9533;-68
2023/08/31 06:34:38;;;;;;;;;1.00;1.00;;;;;14.10;84.20;100842.97;4997145;28;9167;-69
2023/08/31 06:37:05;;;;;;;;;0.00;0.00;;;;;14.14;83.95;100844.19;5010018;28;9325;-69
2023/08/31 06:39:32;;;;;;;;;0.33;0.33;;;;;14.15;83.90;100853.13;4999665;28;9255;-69
2023/08/31 06:41:59;;;;;;;;;0.00;0.00;;;;;14.15;84.04;100847.72;5007815;28;9175;-69
2023/08/31 06:44:30;;;;;;;;;0.00;0.00;;;;;14.17;84.26;100859.16;5004123;28;9335;-69
2023/08/31 06:46:57;;;;;;;;;0.00;0.00;;;;;14.17;84.19;100859.16;5006662;28;9081;-68
2023/08/31 06:49:24;;;;;;;;;0.00;0.00;;;;;14.18;83.94;100863.50;5009775;28;9062;-70
2023/08/31 06:51:50;;;;;;;;;0.00;0.00;;;;;14.16;84.02;100860.19;5001832;28;9098;-69
2023/08/31 06:54:17;;;;;;;;;1.00;1.00;;;;;14.16;84.20;100866.44;5010345;28;8994;-68
2023/08/31 06:56:43;;;;;;;;;0.00;0.00;;;;;14.16;84.13;100865.63;5012016;28;9202;-69
2023/08/31 06:59:10;;;;;;;;;0.00;0.00;;;;;14.18;84.31;100869.78;5013729;28;9005;-69
2023/08/31 07:01:36;;;;;;;;;0.00;0.00;;;;;14.21;84.33;100873.91;5013605;28;9083;-69
2023/08/31 07:04:04;;;;;;;;;0.00;0.00;;;;;14.26;84.62;100874.94;5012311;28;9049;-70
2023/08/31 07:06:33;;;;;;;;;0.00;0.00;;;;;14.26;84.41;100871.38;5011018;28;9067;-68
2023/08/31 07:08:59;;;;;;;;;1.00;0.00;;;;;14.31;84.63;100879.69;5013707;28;9296;-69
2023/08/31 07:11:27;;;;;;;;;0.00;0.00;;;;;14.34;84.69;100874.69;5013402;28;9004;-69
2023/08/31 07:13:54;;;;;;;;;0.00;0.00;;;;;14.40;84.57;100878.38;5012407;28;9079;-69
2023/08/31 07:16:20;;;;;;;;;1.00;0.00;;;;;14.42;84.46;100883.56;5026084;28;9197;-69
2023/08/31 07:18:47;;;;;;;;;0.00;0.00;;;;;14.45;84.57;100875.84;5011331;28;9078;-70
2023/08/31 07:21:14;;;;;;;;;0.00;0.00;;;;;14.52;84.61;100889.38;5008997;28;8984;-69
2023/08/31 07:23:40;;;;;;;;;0.00;0.00;;;;;14.55;84.67;100899.78;5011988;28;9041;-69
2023/08/31 07:26:07;;;;;;;;;0.00;0.00;;;;;14.55;84.59;100902.50;5010758;28;8993;-69
2023/08/31 07:28:34;;;;;;;;;0.00;0.00;;;;;14.52;84.92;100898.31;5013448;28;9311;-69
2023/08/31 07:31:03;;;;;;;;;1.00;1.00;;;;;14.50;85.40;100900.44;5013030;28;9064;-69
2023/08/31 07:33:36;;;;;;;;;0.67;0.67;;;;;14.48;85.44;100896.25;5005347;28;9059;-69
2023/08/31 07:36:05;;;;;;;;;0.00;0.00;;;;;14.45;85.75;100889.38;5010537;28;9137;-70
2023/08/31 07:38:32;;;;;;;;;0.33;0.33;;;;;14.49;85.81;100896.06;5011234;28;9789;-69
2023/08/31 07:40:59;;;;;;;;;0.00;0.00;;;;;14.45;85.50;100897.50;5006185;28;9101;-69
2023/08/31 07:43:26;;;;;;;;;2.00;1.00;;;;;14.48;85.84;100907.09;4999908;28;9102;-69
2023/08/31 07:45:53;;;;;;;;;1.33;0.33;;;;;14.54;85.71;100904.38;5004365;28;9005;-68
2023/08/31 07:48:20;;;;;;;;;1.00;1.00;;;;;14.61;85.85;100903.47;5011272;28;8910;-69
2023/08/31 07:50:46;;;;;;;;;0.67;0.67;;;;;14.64;85.61;100906.59;5012687;28;9197;-68
2023/08/31 07:53:13;;;;;;;;;1.00;0.00;;;;;14.67;85.76;100910.75;5011380;28;9105;-69
2023/08/31 07:55:40;;;;;;;;;0.00;0.00;;;;;14.70;85.56;100915.69;5011388;28;9893;-69
2023/08/31 07:58:06;;;;;;;;;1.00;0.67;;;;;14.75;85.40;100903.19;5011636;28;9012;-69
2023/08/31 08:00:33;;;;;;;;;1.00;1.00;;;;;14.80;85.38;100907.94;4995754;28;9099;-70
2023/08/31 08:03:00;;;;;;;;;1.33;0.67;;;;;14.87;85.36;100907.84;5011417;28;9186;-70
2023/08/31 08:05:27;;;;;;;;;0.67;0.00;;;;;14.95;85.27;100913.00;5012884;28;9167;-70
2023/08/31 08:07:53;;;;;;;;;0.00;0.00;;;;;15.01;85.61;100917.56;5012727;28;9131;-68
2023/08/31 08:10:20;;;;;;;;;2.00;1.67;;;;;15.09;84.96;100917.28;5011618;28;9157;-68
2023/08/31 08:12:46;;;;;;;;;0.00;0.00;;;;;15.16;85.09;100919.94;5012535;28;9097;-68
2023/08/31 08:15:13;;;;;;;;;1.33;0.00;;;;;15.17;85.22;100925.13;5011646;28;8873;-68
2023/08/31 08:17:40;;;;;;;;;1.50;0.00;;;;;15.20;84.83;100924.69;5027744;28;8943;-68
2023/08/31 08:20:07;;;;;;;;;0.00;0.00;;;;;15.23;84.70;100920.69;5027602;28;8835;-68
2023/08/31 08:22:35;;;;;;;;;1.00;0.00;;;;;15.30;84.70;100925.00;5011201;28;9017;-68
2023/08/31 08:25:02;;;;;;;;;1.00;1.00;;;;;15.36;84.32;100926.00;5027639;28;8935;-68
2023/08/31 08:27:29;;;;;;;;;0.00;0.00;;;;;15.42;84.59;100929.69;5012418;28;8930;-68
2023/08/31 08:29:56;;;;;;;;;1.75;1.00;;;;;15.38;84.01;100923.88;5027348;28;8869;-68
2023/08/31 08:32:23;;;;;;;;;0.75;0.50;;;;;15.37;83.55;100926.81;5012394;28;8846;-69
2023/08/31 08:34:50;;;;;;;;;0.00;0.00;;;;;15.36;84.00;100930.59;5012411;28;8835;-68
2023/08/31 08:37:17;;;;;;;;;2.00;2.00;;;;;15.32;83.96;100936.47;5012380;28;8921;-67
2023/08/31 08:39:43;;;;;;;;;1.25;0.50;;;;;15.28;84.16;100942.56;5012093;28;8831;-69
2023/08/31 08:42:11;;;;;;;;;1.00;0.00;;;;;15.33;84.47;100942.72;5027651;28;8847;-68
2023/08/31 08:44:39;;;;;;;;;0.00;0.00;;;;;15.33;83.66;100942.72;5012080;28;8932;-68
2023/08/31 08:47:07;;;;;;;;;0.25;0.00;;;;;15.30;83.57;100946.69;5012008;28;8828;-68
2023/08/31 08:49:36;;;;;;;;;0.75;0.75;;;;;15.25;83.58;100946.53;5011875;28;9647;-68
2023/08/31 08:52:03;;;;;;;;;0.75;0.00;;;;;15.18;82.95;100950.34;5010651;28;8925;-69
2023/08/31 08:54:30;;;;;;;;;0.75;0.00;;;;;15.14;82.85;100952.69;5012179;28;9541;-69
2023/08/31 08:56:57;;;;;;;;;1.67;1.00;;;;;15.11;83.11;100955.84;5011693;28;8874;-70
2023/08/31 08:59:24;;;;;;;;;0.00;0.00;;;;;15.12;83.17;100949.38;5011926;28;8949;-70
2023/08/31 09:01:50;;;;;;;;;0.00;0.00;;;;;15.17;82.75;100946.00;5011038;28;8838;-69
2023/08/31 09:04:18;;;;;;;;;0.67;0.00;;;;;15.25;82.58;100949.25;5011674;28;8883;-70
2023/08/31 09:06:45;;;;;;;;;0.00;0.00;;;;;15.25;82.31;100953.84;5011770;28;8993;-70
2023/08/31 09:09:11;;;;;;;;;0.25;0.25;;;;;15.31;81.38;100953.78;5011848;28;8827;-70
2023/08/31 09:11:38;;;;;;;;;1.00;0.00;;;;;15.43;80.70;100953.03;5010326;28;8854;-70
2023/08/31 09:14:18;;;;;;;;;1.25;1.00;;;;;15.49;79.99;100963.84;5010331;28;8940;-70
2023/08/31 09:16:47;;;;;;;;;1.00;1.00;;;;;15.53;79.56;100962.34;5011324;28;8839;-70
2023/08/31 09:19:32;;;;;;;;;0.25;0.00;;;;;15.61;79.03;100965.81;5011620;28;9665;-71
2023/08/31 09:21:58;;;;;;;;;0.67;0.67;;;;;15.63;78.98;100959.09;5011374;28;8901;-70
2023/08/31 09:24:25;;;;;;;;;0.00;0.00;;;;;15.68;78.70;100964.72;5011487;28;8927;-69
2023/08/31 09:26:54;;;;;;;;;0.00;0.00;;;;;15.77;78.65;100965.25;5011196;28;8923;-70
2023/08/31 09:29:21;;;;;;;;;0.75;0.00;;;;;15.81;78.44;100967.28;5011466;28;8853;-70
2023/08/31 09:31:48;;;;;;;;;0.00;0.00;;;;;15.84;78.51;100971.47;5010957;28;8811;-70
2023/08/31 09:34:16;;;;;;;;;0.00;0.00;;;;;15.83;77.91;100980.63;5011334;28;8914;-70
2023/08/31 09:36:43;;;;;;;;;1.00;0.00;;;;;15.80;77.75;100981.09;5011114;28;8827;-70
2023/08/31 09:39:11;;;;;;;;;0.00;0.00;;;;;15.76;78.00;100980.72;5010011;28;8905;-70
2023/08/31 09:41:54;;;;;;;;;1.25;0.75;;;;;15.80;78.20;100978.41;5010889;28;8951;-69
2023/08/31 09:44:21;;;;;;;;;1.00;0.00;;;;;15.83;78.60;100981.47;5011148;28;8831;-71
2023/08/31 09:46:47;;;;;;;;;1.25;1.00;;;;;15.93;78.10;100977.41;5009697;28;8843;-70
2023/08/31 09:49:16;;;;;;;;;0.25;0.25;;;;;16.04;77.43;100971.19;5010176;28;8843;-70
2023/08/31 09:51:48;;;;;;;;;0.00;0.00;;;;;16.19;77.02;100979.78;5010877;28;8834;-70
2023/08/31 09:54:17;;;;;;;;;0.00;0.00;;;;;16.22;76.38;100979.34;5026267;28;8921;-70
2023/08/31 09:56:45;;;;;;;;;0.50;0.50;;;;;16.25;76.01;100973.47;5010797;28;8831;-70
2023/08/31 09:59:14;;;;;;;;;1.00;1.00;;;;;16.34;75.38;100979.41;5008416;28;8848;-70
2023/08/31 10:01:42;;;;;;;;;0.00;0.00;;;;;16.44;74.94;100985.09;5009656;28;8839;-70
2023/08/31 10:04:09;;;;;;;;;0.50;0.25;;;;;16.47;73.78;100987.38;5017906;28;8839;-70
2023/08/31 10:06:36;;;;;;;;;1.00;1.00;;;;;16.46;73.06;100991.16;5009812;28;8912;-70
2023/08/31 10:09:04;;;;;;;;;2.00;1.50;;;;;16.45;72.57;100985.97;5009830;28;8968;-70
2023/08/31 10:11:31;;;;;;;;;0.25;0.25;;;;;16.40;72.87;100986.63;5008888;28;8831;-70
2023/08/31 10:13:58;;;;;;;;;0.00;0.00;;;;;16.48;72.66;100983.59;5009348;28;8839;-70
2023/08/31 10:16:27;;;;;;;;;2.00;1.00;;;;;16.58;72.69;101004.81;5010426;28;8823;-70
2023/08/31 10:18:56;;;;;;;;;1.50;1.00;;;;;16.56;72.58;100998.75;5010089;28;8831;-70
2023/08/31 10:21:23;;;;;;;;;0.00;0.00;;;;;16.50;72.45;100997.78;5007510;28;8823;-71
2023/08/31 10:23:51;;;;;;;;;1.00;0.00;;;;;16.43;72.90;100997.03;5008842;28;8819;-71
2023/08/31 10:26:28;;;;;;;;;0.00;0.00;;;;;16.40;72.93;100996.66;5005347;28;8899;-70
2023/08/31 10:28:59;;;;;;;;;0.00;0.00;;;;;16.37;72.97;101002.59;5005721;28;8846;-70
2023/08/31 10:31:33;;;;;;;;;2.75;1.00;;;;;16.42;73.08;101002.72;4996221;28;8835;-72
2023/08/31 10:34:05;;;;;;;;;1.00;1.00;;;;;16.47;72.94;101002.84;5010284;28;8839;-72
2023/08/31 10:37:03;;;;;;;;;1.50;1.50;;;;;16.54;72.74;100999.00;5010440;28;8866;-70
2023/08/31 10:39:39;;;;;;;;;1.00;1.00;;;;;16.56;71.84;101001.47;5009768;28;8873;-70
2023/08/31 10:42:06;;;;;;;;;0.25;0.25;;;;;16.61;71.29;101004.34;4992312;28;8854;-70
2023/08/31 10:44:34;;;;;;;;;0.00;0.00;;;;;16.62;71.01;101006.00;5005381;28;8841;-70
2023/08/31 10:47:03;;;;;;;;;1.00;1.00;;;;;16.66;71.34;101014.53;4990169;28;8829;-69
2023/08/31 10:49:32;;;;;;;;;2.00;0.75;;;;;16.62;71.55;101022.31;5035159;22;8893;-68
2023/08/31 10:52:16;;;;;;;;;0.25;0.25;;;;;16.66;71.14;101019.97;5012292;28;8827;-67
2023/08/31 10:54:57;;;;;;;;;0.00;0.00;;;;;16.71;71.42;101017.38;5004460;28;8907;-67
2023/08/31 10:57:30;;;;;;;;;1.00;1.00;;;;;16.79;71.66;101031.50;4989216;28;8864;-67
2023/08/31 10:59:58;;;;;;;;;1.00;1.00;;;;;16.76;71.79;101031.13;4973177;28;8834;-66
2023/08/31 11:02:42;;;;;;;;;0.00;0.00;;;;;16.74;71.05;101025.94;4970003;28;8830;-66
2023/08/31 11:05:26;;;;;;;;;1.00;1.00;;;;;16.81;71.24;101031.25;4985845;28;8874;-67
2023/08/31 11:07:53;;;;;;;;;0.75;0.75;;;;;16.80;70.55;101026.88;4985937;28;8938;-66
2023/08/31 11:10:29;;;;;;;;;0.25;0.00;;;;;16.87;69.70;101029.53;4969870;28;9568;-68
2023/08/31 11:12:57;;;;;;;;;0.00;0.00;;;;;16.99;68.96;101027.66;4971241;28;8830;-67
2023/08/31 11:15:26;;;;;;;;;1.00;1.00;;;;;17.01;69.41;101025.53;4971096;28;8825;-67
2023/08/31 11:17:55;;;;;;;;;1.00;1.00;;;;;17.09;69.58;101017.03;4971001;28;8830;-67
2023/08/31 11:20:22;;;;;;;;;0.75;0.75;;;;;17.07;69.47;101021.06;4970685;28;8841;-66
2023/08/31 11:22:52;;;;;;;;;1.25;1.00;;;;;17.04;68.84;101022.34;4986044;28;8849;-67
2023/08/31 11:25:21;;;;;;;;;0.00;0.00;;;;;17.09;68.88;101011.59;4973852;28;9568;-67
2023/08/31 11:27:55;;;;;;;;;1.00;0.00;;;;;17.17;69.08;101011.25;4974358;28;9989;-66
2023/08/31 11:30:22;;;;;;;;;0.75;0.25;;;;;17.23;68.16;101009.50;4989209;28;8841;-67
2023/08/31 11:32:51;;;;;;;;;0.00;0.00;;;;;17.27;67.88;101007.97;4974307;28;8826;-67
2023/08/31 11:35:20;;;;;;;;;1.00;0.75;;;;;17.27;66.88;101011.53;4974435;28;8833;-67
2023/08/31 11:37:50;;;;;;;;;0.00;0.00;;;;;17.17;64.54;101011.25;4974343;28;8825;-67
2023/08/31 11:40:17;;;;;;;;;0.00;0.00;;;;;17.28;63.93;101009.63;4989022;28;8838;-67